Strona główna
METAR-TAF:

METAR-TAF

Lotnisko :

St. Clair County International Airport

Port Huron, Michigan, Stany Zjednoczone

Szerokość geograficzna: 42-55N, Długość geograficzna: 082-32W, wysokość: 198 m

Aktualna obserwacja pogody

Raport powstał 28 minut temu, godzina 06:35 UTC
Wiatr 7 kt od północno-północny wschód
Temperatura 0°C
Wilgotność 86%
Ciśnienie 1016 hPa
Widzialność: 4.8 km
Rozproszone chmury na wysokości 1500 ft
Zachmurzenie całkowite na wysokości 2500 ft
słaby śnieg

METAR: KPHN 260635Z AUTO 02007KT 3SM -SN SCT015 OVC025 00/M02 A2999 RMK AO2

czas: 02:03 (07:03 UTC)


TAF: brakujący

Obserwacja i prognoza pogody dla ponad 4000 lotnisk (raport METAR i TAF).

Dostępne stacje oznaczono żółtymi i czerwonymi punktami na mapie.

Najedź kursorem aby zobaczyć nazwę stacji.

Kliknij aby zobaczyć obserwacje i prognozy pogody.

Aby zmienić mapę: kliknij na zielony przycisk z czarnym krzyżykiem, aby powiększyć; na zielony przycisk z myślnikiem, aby pomniejszyć; na zielone strzałki, aby przejść do map sąsiednich.


METAR-TAF: